sensor_id;sensor_type;location;lat;lon;timestamp;pressure;altitude;pressure_sealevel;temperature;humidity
49627;BME280;35527;54.616;39.786;2023-02-08T00:00:53;102513.78;;;-9.24;100.00
49627;BME280;35527;54.616;39.786;2023-02-08T00:03:56;102538.28;;;-9.01;100.00
49627;BME280;35527;54.616;39.786;2023-02-08T00:07:03;102495.50;;;-9.13;100.00
49627;BME280;35527;54.616;39.786;2023-02-08T00:10:32;102507.16;;;-9.03;100.00
49627;BME280;35527;54.616;39.786;2023-02-08T00:13:40;102532.28;;;-8.82;100.00
49627;BME280;35527;54.616;39.786;2023-02-08T00:16:43;102532.53;;;-8.69;100.00
49627;BME280;35527;54.616;39.786;2023-02-08T00:19:46;102506.06;;;-8.66;100.00
49627;BME280;35527;54.616;39.786;2023-02-08T00:22:50;102511.09;;;-8.55;100.00
49627;BME280;35527;54.616;39.786;2023-02-08T00:25:57;102492.00;;;-8.64;100.00
49627;BME280;35527;54.616;39.786;2023-02-08T00:29:00;102523.38;;;-8.48;100.00
49627;BME280;35527;54.616;39.786;2023-02-08T00:32:06;102495.38;;;-8.73;100.00
49627;BME280;35527;54.616;39.786;2023-02-08T00:35:11;102516.97;;;-8.55;100.00
49627;BME280;35527;54.616;39.786;2023-02-08T00:38:15;102493.63;;;-8.74;100.00
49627;BME280;35527;54.616;39.786;2023-02-08T00:41:20;102478.94;;;-8.80;100.00
49627;BME280;35527;54.616;39.786;2023-02-08T00:44:23;102471.94;;;-8.84;100.00
49627;BME280;35527;54.616;39.786;2023-02-08T00:47:27;102490.25;;;-8.75;100.00
49627;BME280;35527;54.616;39.786;2023-02-08T00:50:31;102450.47;;;-9.11;100.00
49627;BME280;35527;54.616;39.786;2023-02-08T00:53:36;102494.59;;;-8.93;100.00
49627;BME280;35527;54.616;39.786;2023-02-08T00:56:45;102472.03;;;-9.23;100.00
49627;BME280;35527;54.616;39.786;2023-02-08T00:59:50;102489.81;;;-9.20;100.00
49627;BME280;35527;54.616;39.786;2023-02-08T01:02:53;102493.19;;;-9.30;100.00
49627;BME280;35527;54.616;39.786;2023-02-08T01:06:02;102465.28;;;-9.54;100.00
49627;BME280;35527;54.616;39.786;2023-02-08T01:09:07;102467.03;;;-9.63;100.00
49627;BME280;35527;54.616;39.786;2023-02-08T01:12:13;102499.75;;;-9.61;100.00
49627;BME280;35527;54.616;39.786;2023-02-08T01:15:18;102489.88;;;-9.79;100.00
49627;BME280;35527;54.616;39.786;2023-02-08T01:18:22;102493.56;;;-9.94;100.00
49627;BME280;35527;54.616;39.786;2023-02-08T01:21:28;102432.56;;;-10.34;100.00
49627;BME280;35527;54.616;39.786;2023-02-08T01:24:36;102473.25;;;-10.26;100.00
49627;BME280;35527;54.616;39.786;2023-02-08T01:27:39;102481.63;;;-10.26;100.00
49627;BME280;35527;54.616;39.786;2023-02-08T01:31:10;102478.03;;;-10.29;100.00
49627;BME280;35527;54.616;39.786;2023-02-08T01:34:14;102470.00;;;-10.35;100.00
49627;BME280;35527;54.616;39.786;2023-02-08T01:37:19;102449.47;;;-10.50;100.00
49627;BME280;35527;54.616;39.786;2023-02-08T01:40:23;102463.22;;;-10.55;100.00
49627;BME280;35527;54.616;39.786;2023-02-08T01:43:28;102481.41;;;-10.48;100.00
49627;BME280;35527;54.616;39.786;2023-02-08T01:46:44;102458.47;;;-10.71;100.00
49627;BME280;35527;54.616;39.786;2023-02-08T01:50:14;102488.97;;;-10.56;100.00
49627;BME280;35527;54.616;39.786;2023-02-08T01:53:20;102472.13;;;-10.68;100.00
49627;BME280;35527;54.616;39.786;2023-02-08T01:56:30;102483.44;;;-10.62;100.00
49627;BME280;35527;54.616;39.786;2023-02-08T01:59:47;102455.53;;;-10.76;100.00
49627;BME280;35527;54.616;39.786;2023-02-08T02:02:53;102457.78;;;-10.79;100.00
49627;BME280;35527;54.616;39.786;2023-02-08T02:06:04;102491.69;;;-10.63;100.00
49627;BME280;35527;54.616;39.786;2023-02-08T02:09:30;102482.00;;;-10.69;100.00
49627;BME280;35527;54.616;39.786;2023-02-08T02:12:38;102498.03;;;-10.67;100.00
49627;BME280;35527;54.616;39.786;2023-02-08T02:15:43;102493.38;;;-10.73;100.00
49627;BME280;35527;54.616;39.786;2023-02-08T02:18:49;102459.06;;;-10.93;100.00
49627;BME280;35527;54.616;39.786;2023-02-08T02:39:03;102491.19;;;-10.78;100.00
49627;BME280;35527;54.616;39.786;2023-02-08T02:42:29;102493.28;;;-10.83;100.00
49627;BME280;35527;54.616;39.786;2023-02-08T02:49:46;102493.16;;;-10.93;100.00
49627;BME280;35527;54.616;39.786;2023-02-08T02:53:09;102430.03;;;-11.37;100.00
49627;BME280;35527;54.616;39.786;2023-02-08T02:56:18;102473.41;;;-11.09;100.00
49627;BME280;35527;54.616;39.786;2023-02-08T02:59:26;102482.34;;;-11.02;100.00
49627;BME280;35527;54.616;39.786;2023-02-08T03:02:30;102466.47;;;-11.03;100.00
49627;BME280;35527;54.616;39.786;2023-02-08T03:05:35;102483.50;;;-10.99;100.00
49627;BME280;35527;54.616;39.786;2023-02-08T03:12:02;102468.78;;;-10.96;100.00
49627;BME280;35527;54.616;39.786;2023-02-08T03:19:03;102474.50;;;-10.97;100.00
49627;BME280;35527;54.616;39.786;2023-02-08T03:22:14;102480.13;;;-10.99;100.00
49627;BME280;35527;54.616;39.786;2023-02-08T03:25:23;102473.66;;;-10.97;100.00
49627;BME280;35527;54.616;39.786;2023-02-08T03:28:40;102459.13;;;-11.01;100.00
49627;BME280;35527;54.616;39.786;2023-02-08T03:35:01;102495.94;;;-10.90;100.00
49627;BME280;35527;54.616;39.786;2023-02-08T03:38:12;102499.94;;;-10.92;100.00
49627;BME280;35527;54.616;39.786;2023-02-08T03:41:26;102489.47;;;-10.88;100.00
49627;BME280;35527;54.616;39.786;2023-02-08T03:44:40;102491.97;;;-10.88;100.00
49627;BME280;35527;54.616;39.786;2023-02-08T03:47:48;102478.03;;;-10.95;100.00
49627;BME280;35527;54.616;39.786;2023-02-08T03:50:54;102492.66;;;-10.80;100.00
49627;BME280;35527;54.616;39.786;2023-02-08T03:54:00;102455.53;;;-10.95;100.00
49627;BME280;35527;54.616;39.786;2023-02-08T03:57:37;102496.00;;;-10.71;100.00
49627;BME280;35527;54.616;39.786;2023-02-08T04:01:02;102494.78;;;-10.66;100.00
49627;BME280;35527;54.616;39.786;2023-02-08T04:04:07;102492.41;;;-10.64;100.00
49627;BME280;35527;54.616;39.786;2023-02-08T04:07:16;102500.69;;;-10.47;100.00
49627;BME280;35527;54.616;39.786;2023-02-08T04:10:19;102489.94;;;-10.46;100.00
49627;BME280;35527;54.616;39.786;2023-02-08T04:13:52;102515.59;;;-10.19;100.00
49627;BME280;35527;54.616;39.786;2023-02-08T04:16:56;102481.72;;;-10.15;100.00
49627;BME280;35527;54.616;39.786;2023-02-08T04:19:59;102473.44;;;-9.95;100.00
49627;BME280;35527;54.616;39.786;2023-02-08T04:23:01;102477.84;;;-9.83;100.00
49627;BME280;35527;54.616;39.786;2023-02-08T04:26:05;102496.06;;;-9.65;100.00
49627;BME280;35527;54.616;39.786;2023-02-08T04:29:13;102502.41;;;-9.49;100.00
49627;BME280;35527;54.616;39.786;2023-02-08T04:32:20;102496.53;;;-9.40;100.00
49627;BME280;35527;54.616;39.786;2023-02-08T04:35:25;102484.56;;;-9.23;100.00
49627;BME280;35527;54.616;39.786;2023-02-08T04:38:29;102465.47;;;-9.32;100.00
49627;BME280;35527;54.616;39.786;2023-02-08T04:41:33;102453.34;;;-9.17;100.00
49627;BME280;35527;54.616;39.786;2023-02-08T04:44:37;102496.38;;;-9.02;100.00
49627;BME280;35527;54.616;39.786;2023-02-08T04:47:43;102499.75;;;-9.01;100.00
49627;BME280;35527;54.616;39.786;2023-02-08T04:50:46;102490.63;;;-9.01;100.00
49627;BME280;35527;54.616;39.786;2023-02-08T04:53:51;102504.91;;;-9.00;100.00
49627;BME280;35527;54.616;39.786;2023-02-08T04:56:54;102480.31;;;-9.14;100.00
49627;BME280;35527;54.616;39.786;2023-02-08T04:59:58;102472.03;;;-9.13;100.00
49627;BME280;35527;54.616;39.786;2023-02-08T05:03:02;102497.50;;;-9.09;100.00
49627;BME280;35527;54.616;39.786;2023-02-08T05:06:11;102496.22;;;-9.14;100.00
49627;BME280;35527;54.616;39.786;2023-02-08T05:09:14;102497.34;;;-9.20;100.00
49627;BME280;35527;54.616;39.786;2023-02-08T05:12:17;102448.53;;;-9.44;100.00
49627;BME280;35527;54.616;39.786;2023-02-08T05:15:22;102497.06;;;-9.34;100.00
49627;BME280;35527;54.616;39.786;2023-02-08T05:18:29;102473.22;;;-9.39;100.00
49627;BME280;35527;54.616;39.786;2023-02-08T05:21:31;102515.75;;;-9.30;100.00
49627;BME280;35527;54.616;39.786;2023-02-08T05:24:36;102509.13;;;-9.30;100.00
49627;BME280;35527;54.616;39.786;2023-02-08T05:27:39;102492.81;;;-9.35;100.00
49627;BME280;35527;54.616;39.786;2023-02-08T05:34:13;102472.44;;;-9.48;100.00
49627;BME280;35527;54.616;39.786;2023-02-08T05:37:19;102460.78;;;-9.47;100.00
49627;BME280;35527;54.616;39.786;2023-02-08T05:40:21;102490.81;;;-9.28;100.00
49627;BME280;35527;54.616;39.786;2023-02-08T05:43:26;102495.81;;;-9.28;100.00
49627;BME280;35527;54.616;39.786;2023-02-08T05:46:29;102504.63;;;-9.23;100.00
49627;BME280;35527;54.616;39.786;2023-02-08T05:49:32;102467.22;;;-9.41;100.00
49627;BME280;35527;54.616;39.786;2023-02-08T05:52:35;102496.69;;;-9.28;100.00
49627;BME280;35527;54.616;39.786;2023-02-08T05:55:45;102493.81;;;-9.33;100.00
49627;BME280;35527;54.616;39.786;2023-02-08T05:59:13;102493.69;;;-9.34;100.00
49627;BME280;35527;54.616;39.786;2023-02-08T06:02:17;102490.84;;;-9.18;100.00
49627;BME280;35527;54.616;39.786;2023-02-08T06:05:20;102485.66;;;-9.30;100.00
49627;BME280;35527;54.616;39.786;2023-02-08T06:08:26;102491.56;;;-9.19;100.00
49627;BME280;35527;54.616;39.786;2023-02-08T06:11:31;102444.81;;;-9.29;100.00
49627;BME280;35527;54.616;39.786;2023-02-08T06:14:34;102471.41;;;-9.11;100.00
49627;BME280;35527;54.616;39.786;2023-02-08T06:18:02;102479.31;;;-8.96;100.00
49627;BME280;35527;54.616;39.786;2023-02-08T06:21:10;102478.47;;;-8.86;100.00
49627;BME280;35527;54.616;39.786;2023-02-08T06:24:15;102472.91;;;-8.82;100.00
49627;BME280;35527;54.616;39.786;2023-02-08T06:27:18;102464.00;;;-8.68;100.00
49627;BME280;35527;54.616;39.786;2023-02-08T06:30:23;102464.78;;;-8.69;100.00
49627;BME280;35527;54.616;39.786;2023-02-08T06:33:28;102472.16;;;-8.40;100.00
49627;BME280;35527;54.616;39.786;2023-02-08T06:36:31;102476.09;;;-8.22;100.00
49627;BME280;35527;54.616;39.786;2023-02-08T06:39:34;102476.31;;;-8.08;100.00
49627;BME280;35527;54.616;39.786;2023-02-08T06:42:39;102454.22;;;-8.12;100.00
49627;BME280;35527;54.616;39.786;2023-02-08T06:45:45;102480.66;;;-7.96;100.00
49627;BME280;35527;54.616;39.786;2023-02-08T06:48:48;102472.41;;;-8.05;100.00
49627;BME280;35527;54.616;39.786;2023-02-08T06:51:54;102489.13;;;-8.05;100.00
49627;BME280;35527;54.616;39.786;2023-02-08T06:54:57;102485.97;;;-8.13;100.00
49627;BME280;35527;54.616;39.786;2023-02-08T06:58:03;102482.84;;;-8.10;100.00
49627;BME280;35527;54.616;39.786;2023-02-08T07:01:11;102486.66;;;-7.83;100.00
49627;BME280;35527;54.616;39.786;2023-02-08T07:04:16;102434.28;;;-7.67;100.00
49627;BME280;35527;54.616;39.786;2023-02-08T07:07:21;102472.97;;;-7.55;100.00
49627;BME280;35527;54.616;39.786;2023-02-08T07:10:23;102439.22;;;-7.68;100.00
49627;BME280;35527;54.616;39.786;2023-02-08T07:13:26;102437.34;;;-7.49;100.00
49627;BME280;35527;54.616;39.786;2023-02-08T07:16:30;102456.69;;;-7.48;100.00
49627;BME280;35527;54.616;39.786;2023-02-08T07:19:38;102435.16;;;-7.22;100.00
49627;BME280;35527;54.616;39.786;2023-02-08T07:22:42;102437.81;;;-7.21;100.00
49627;BME280;35527;54.616;39.786;2023-02-08T07:26:03;102474.13;;;-7.17;100.00
49627;BME280;35527;54.616;39.786;2023-02-08T07:29:07;102473.53;;;-7.25;100.00
49627;BME280;35527;54.616;39.786;2023-02-08T07:32:10;102436.53;;;-7.38;100.00
49627;BME280;35527;54.616;39.786;2023-02-08T07:35:15;102487.06;;;-7.35;100.00
49627;BME280;35527;54.616;39.786;2023-02-08T07:38:21;102477.69;;;-7.48;100.00
49627;BME280;35527;54.616;39.786;2023-02-08T07:41:25;102465.69;;;-7.62;100.00
49627;BME280;35527;54.616;39.786;2023-02-08T07:44:27;102466.50;;;-7.73;100.00
49627;BME280;35527;54.616;39.786;2023-02-08T07:47:31;102479.66;;;-7.65;100.00
49627;BME280;35527;54.616;39.786;2023-02-08T07:50:34;102480.09;;;-7.49;100.00
49627;BME280;35527;54.616;39.786;2023-02-08T07:53:38;102477.75;;;-7.36;100.00
49627;BME280;35527;54.616;39.786;2023-02-08T07:56:40;102470.03;;;-7.27;100.00
49627;BME280;35527;54.616;39.786;2023-02-08T07:59:49;102449.06;;;-7.16;100.00
49627;BME280;35527;54.616;39.786;2023-02-08T08:02:56;102456.94;;;-6.89;100.00
49627;BME280;35527;54.616;39.786;2023-02-08T08:06:01;102439.88;;;-6.70;100.00
49627;BME280;35527;54.616;39.786;2023-02-08T08:09:04;102450.97;;;-6.32;99.81
49627;BME280;35527;54.616;39.786;2023-02-08T08:12:10;102430.56;;;-5.89;97.32
49627;BME280;35527;54.616;39.786;2023-02-08T08:15:15;102439.88;;;-5.51;94.97
49627;BME280;35527;54.616;39.786;2023-02-08T08:18:18;102438.56;;;-5.46;90.78
49627;BME280;35527;54.616;39.786;2023-02-08T08:21:22;102426.13;;;-5.68;90.33
49627;BME280;35527;54.616;39.786;2023-02-08T08:24:27;102423.47;;;-5.94;89.88
49627;BME280;35527;54.616;39.786;2023-02-08T08:27:34;102444.63;;;-6.04;92.52
49627;BME280;35527;54.616;39.786;2023-02-08T08:30:42;102427.44;;;-5.98;93.44
49627;BME280;35527;54.616;39.786;2023-02-08T08:33:45;102411.22;;;-6.13;93.66
49627;BME280;35527;54.616;39.786;2023-02-08T08:37:13;102433.88;;;-6.01;93.16
49627;BME280;35527;54.616;39.786;2023-02-08T08:40:45;102410.22;;;-6.27;93.63
49627;BME280;35527;54.616;39.786;2023-02-08T08:43:47;102418.75;;;-6.01;94.53
49627;BME280;35527;54.616;39.786;2023-02-08T08:46:55;102420.97;;;-6.06;93.87
49627;BME280;35527;54.616;39.786;2023-02-08T08:50:01;102402.78;;;-6.14;94.19
49627;BME280;35527;54.616;39.786;2023-02-08T08:53:32;102370.94;;;-6.37;94.72
49627;BME280;35527;54.616;39.786;2023-02-08T08:56:38;102397.41;;;-6.18;95.40
49627;BME280;35527;54.616;39.786;2023-02-08T08:59:41;102396.97;;;-6.01;96.33
49627;BME280;35527;54.616;39.786;2023-02-08T09:02:47;102389.06;;;-5.94;95.22
49627;BME280;35527;54.616;39.786;2023-02-08T09:05:52;102373.09;;;-6.06;94.77
49627;BME280;35527;54.616;39.786;2023-02-08T09:08:57;102378.44;;;-6.13;94.53
49627;BME280;35527;54.616;39.786;2023-02-08T09:12:00;102400.38;;;-6.12;94.97
49627;BME280;35527;54.616;39.786;2023-02-08T09:15:07;102374.03;;;-6.04;96.36
49627;BME280;35527;54.616;39.786;2023-02-08T09:18:13;102377.00;;;-6.09;95.59
49627;BME280;35527;54.616;39.786;2023-02-08T09:21:20;102386.38;;;-5.83;95.75
49627;BME280;35527;54.616;39.786;2023-02-08T09:24:25;102376.94;;;-5.86;95.48
49627;BME280;35527;54.616;39.786;2023-02-08T09:27:36;102376.59;;;-5.79;95.82
49627;BME280;35527;54.616;39.786;2023-02-08T09:30:40;102380.91;;;-5.64;96.48
49627;BME280;35527;54.616;39.786;2023-02-08T09:33:43;102332.78;;;-5.93;96.31
49627;BME280;35527;54.616;39.786;2023-02-08T09:36:46;102385.31;;;-5.62;96.17
49627;BME280;35527;54.616;39.786;2023-02-08T09:39:52;102370.84;;;-5.64;95.94
49627;BME280;35527;54.616;39.786;2023-02-08T09:43:08;102374.44;;;-5.61;96.37
49627;BME280;35527;54.616;39.786;2023-02-08T09:46:21;102341.00;;;-5.83;95.40
49627;BME280;35527;54.616;39.786;2023-02-08T09:49:31;102350.09;;;-5.85;96.56
49627;BME280;35527;54.616;39.786;2023-02-08T09:55:54;102371.56;;;-5.91;97.46
49627;BME280;35527;54.616;39.786;2023-02-08T09:59:00;102356.09;;;-6.08;98.58
49627;BME280;35527;54.616;39.786;2023-02-08T10:02:33;102354.13;;;-6.01;99.20
49627;BME280;35527;54.616;39.786;2023-02-08T10:05:40;102337.47;;;-6.10;98.75
49627;BME280;35527;54.616;39.786;2023-02-08T10:08:48;102354.25;;;-5.86;98.23
49627;BME280;35527;54.616;39.786;2023-02-08T10:12:16;102355.00;;;-5.87;98.69
49627;BME280;35527;54.616;39.786;2023-02-08T10:25:40;102311.28;;;-5.88;96.19
49627;BME280;35527;54.616;39.786;2023-02-08T10:35:16;102319.78;;;-5.74;97.45
49627;BME280;35527;54.616;39.786;2023-02-08T10:38:26;102316.25;;;-5.76;96.52
49627;BME280;35527;54.616;39.786;2023-02-08T10:41:47;102313.59;;;-5.66;96.37
49627;BME280;35527;54.616;39.786;2023-02-08T10:47:58;102285.59;;;-5.57;97.17
49627;BME280;35527;54.616;39.786;2023-02-08T10:51:03;102311.41;;;-5.23;95.71
49627;BME280;35527;54.616;39.786;2023-02-08T10:54:12;102259.13;;;-5.50;94.79
49627;BME280;35527;54.616;39.786;2023-02-08T10:57:24;102300.66;;;-4.93;94.87
49627;BME280;35527;54.616;39.786;2023-02-08T11:00:38;102298.31;;;-4.90;93.32
49627;BME280;35527;54.616;39.786;2023-02-08T11:04:09;102265.56;;;-5.15;93.34
49627;BME280;35527;54.616;39.786;2023-02-08T11:07:20;102263.63;;;-5.19;93.69
49627;BME280;35527;54.616;39.786;2023-02-08T11:10:24;102276.75;;;-4.99;94.88
49627;BME280;35527;54.616;39.786;2023-02-08T11:16:57;102266.09;;;-4.94;95.20
49627;BME280;35527;54.616;39.786;2023-02-08T11:20:01;102242.47;;;-5.08;95.16
49627;BME280;35527;54.616;39.786;2023-02-08T11:23:37;102259.19;;;-4.97;94.60
49627;BME280;35527;54.616;39.786;2023-02-08T11:26:42;102240.03;;;-5.07;95.68
49627;BME280;35527;54.616;39.786;2023-02-08T11:29:45;102246.34;;;-4.87;96.28
49627;BME280;35527;54.616;39.786;2023-02-08T11:33:19;102231.31;;;-4.85;95.90
49627;BME280;35527;54.616;39.786;2023-02-08T11:36:27;102242.47;;;-4.82;95.81
49627;BME280;35527;54.616;39.786;2023-02-08T11:39:58;102233.53;;;-4.90;95.61
49627;BME280;35527;54.616;39.786;2023-02-08T11:43:02;102185.78;;;-5.13;96.57
49627;BME280;35527;54.616;39.786;2023-02-08T11:46:08;102227.13;;;-4.98;97.36
49627;BME280;35527;54.616;39.786;2023-02-08T11:49:21;102215.97;;;-5.02;97.57
49627;BME280;35527;54.616;39.786;2023-02-08T11:52:34;102190.03;;;-5.12;97.20
49627;BME280;35527;54.616;39.786;2023-02-08T11:55:42;102186.19;;;-5.21;97.87
49627;BME280;35527;54.616;39.786;2023-02-08T12:02:37;102208.91;;;-5.21;99.11
49627;BME280;35527;54.616;39.786;2023-02-08T12:13:23;102212.97;;;-5.09;100.00
49627;BME280;35527;54.616;39.786;2023-02-08T12:33:27;102190.22;;;-4.96;99.20
49627;BME280;35527;54.616;39.786;2023-02-08T12:43:32;102177.81;;;-5.06;98.43
49627;BME280;35527;54.616;39.786;2023-02-08T12:53:19;102158.13;;;-5.12;100.00
49627;BME280;35527;54.616;39.786;2023-02-08T12:56:29;102138.78;;;-5.25;99.30
49627;BME280;35527;54.616;39.786;2023-02-08T12:59:39;102164.03;;;-5.11;99.75
49627;BME280;35527;54.616;39.786;2023-02-08T13:06:15;102142.38;;;-5.21;99.74
49627;BME280;35527;54.616;39.786;2023-02-08T13:12:48;102146.00;;;-5.17;100.00
49627;BME280;35527;54.616;39.786;2023-02-08T13:16:21;102157.22;;;-5.12;100.00
49627;BME280;35527;54.616;39.786;2023-02-08T13:19:41;102137.44;;;-5.33;100.00
49627;BME280;35527;54.616;39.786;2023-02-08T13:23:03;102120.38;;;-5.37;100.00
49627;BME280;35527;54.616;39.786;2023-02-08T13:26:18;102118.59;;;-5.38;100.00
49627;BME280;35527;54.616;39.786;2023-02-08T13:29:26;102143.53;;;-5.16;100.00
49627;BME280;35527;54.616;39.786;2023-02-08T13:32:39;102127.03;;;-5.24;100.00
49627;BME280;35527;54.616;39.786;2023-02-08T13:35:51;102142.19;;;-5.24;100.00
49627;BME280;35527;54.616;39.786;2023-02-08T13:38:58;102122.22;;;-5.34;100.00
49627;BME280;35527;54.616;39.786;2023-02-08T13:42:04;102106.59;;;-5.42;100.00
49627;BME280;35527;54.616;39.786;2023-02-08T13:45:24;102061.47;;;-5.64;100.00
49627;BME280;35527;54.616;39.786;2023-02-08T13:48:44;102092.72;;;-5.49;100.00
49627;BME280;35527;54.616;39.786;2023-02-08T13:51:51;102096.97;;;-5.61;100.00
49627;BME280;35527;54.616;39.786;2023-02-08T14:09:13;102067.91;;;-5.69;100.00
49627;BME280;35527;54.616;39.786;2023-02-08T14:15:39;102015.56;;;-5.86;100.00
49627;BME280;35527;54.616;39.786;2023-02-08T14:18:51;102029.97;;;-5.84;100.00
49627;BME280;35527;54.616;39.786;2023-02-08T14:25:15;102037.53;;;-5.84;100.00
49627;BME280;35527;54.616;39.786;2023-02-08T14:28:44;102058.50;;;-5.72;100.00
49627;BME280;35527;54.616;39.786;2023-02-08T14:31:49;102035.78;;;-5.85;100.00
49627;BME280;35527;54.616;39.786;2023-02-08T14:44:59;102060.41;;;-5.81;100.00
49627;BME280;35527;54.616;39.786;2023-02-08T14:48:18;102050.44;;;-5.79;100.00
49627;BME280;35527;54.616;39.786;2023-02-08T14:51:32;102021.66;;;-5.96;100.00
49627;BME280;35527;54.616;39.786;2023-02-08T14:54:49;102032.22;;;-5.89;100.00
49627;BME280;35527;54.616;39.786;2023-02-08T14:57:56;102038.91;;;-5.89;100.00
49627;BME280;35527;54.616;39.786;2023-02-08T15:01:31;102049.38;;;-5.83;100.00
49627;BME280;35527;54.616;39.786;2023-02-08T15:04:43;102058.78;;;-5.80;100.00
49627;BME280;35527;54.616;39.786;2023-02-08T15:07:51;102060.41;;;-5.81;100.00
49627;BME280;35527;54.616;39.786;2023-02-08T15:10:55;102030.97;;;-5.95;100.00
49627;BME280;35527;54.616;39.786;2023-02-08T15:14:24;102038.81;;;-5.77;100.00
49627;BME280;35527;54.616;39.786;2023-02-08T15:17:33;102047.25;;;-5.77;100.00
49627;BME280;35527;54.616;39.786;2023-02-08T15:20:40;102036.09;;;-5.80;100.00
49627;BME280;35527;54.616;39.786;2023-02-08T15:24:13;102036.38;;;-5.76;100.00
49627;BME280;35527;54.616;39.786;2023-02-08T15:27:28;102026.09;;;-5.79;100.00
49627;BME280;35527;54.616;39.786;2023-02-08T15:30:36;102027.63;;;-5.81;100.00
49627;BME280;35527;54.616;39.786;2023-02-08T15:33:40;102017.28;;;-5.85;100.00
49627;BME280;35527;54.616;39.786;2023-02-08T15:36:54;102024.63;;;-5.75;100.00
49627;BME280;35527;54.616;39.786;2023-02-08T15:40:03;102005.53;;;-5.85;100.00
49627;BME280;35527;54.616;39.786;2023-02-08T15:46:20;101999.22;;;-5.78;100.00
49627;BME280;35527;54.616;39.786;2023-02-08T15:49:31;102006.97;;;-5.75;100.00
49627;BME280;35527;54.616;39.786;2023-02-08T15:52:38;101987.28;;;-5.81;100.00
49627;BME280;35527;54.616;39.786;2023-02-08T15:55:50;102009.13;;;-5.68;100.00
49627;BME280;35527;54.616;39.786;2023-02-08T15:58:56;101981.19;;;-5.84;100.00
49627;BME280;35527;54.616;39.786;2023-02-08T16:02:31;101984.38;;;-5.74;100.00
49627;BME280;35527;54.616;39.786;2023-02-08T16:05:40;101986.91;;;-5.74;100.00
49627;BME280;35527;54.616;39.786;2023-02-08T16:08:43;101991.34;;;-5.70;100.00
49627;BME280;35527;54.616;39.786;2023-02-08T16:11:48;101961.31;;;-5.80;100.00
49627;BME280;35527;54.616;39.786;2023-02-08T16:14:51;101970.31;;;-5.70;100.00
49627;BME280;35527;54.616;39.786;2023-02-08T16:17:59;101972.84;;;-5.70;100.00
49627;BME280;35527;54.616;39.786;2023-02-08T16:21:03;101958.50;;;-5.84;100.00
49627;BME280;35527;54.616;39.786;2023-02-08T16:27:26;101978.00;;;-5.69;100.00
49627;BME280;35527;54.616;39.786;2023-02-08T16:30:32;101968.47;;;-5.73;100.00
49627;BME280;35527;54.616;39.786;2023-02-08T16:33:35;101977.31;;;-5.66;100.00
49627;BME280;35527;54.616;39.786;2023-02-08T16:36:44;101963.16;;;-5.77;100.00
49627;BME280;35527;54.616;39.786;2023-02-08T16:39:54;101968.66;;;-5.70;100.00
49627;BME280;35527;54.616;39.786;2023-02-08T16:43:15;101947.75;;;-5.82;100.00
49627;BME280;35527;54.616;39.786;2023-02-08T16:46:20;101961.69;;;-5.74;100.00
49627;BME280;35527;54.616;39.786;2023-02-08T16:49:24;101939.69;;;-5.76;100.00
49627;BME280;35527;54.616;39.786;2023-02-08T16:52:27;101953.03;;;-5.64;100.00
49627;BME280;35527;54.616;39.786;2023-02-08T16:55:36;101935.97;;;-5.68;100.00
49627;BME280;35527;54.616;39.786;2023-02-08T16:59:04;101942.44;;;-5.58;100.00
49627;BME280;35527;54.616;39.786;2023-02-08T17:02:11;101911.88;;;-5.78;100.00
49627;BME280;35527;54.616;39.786;2023-02-08T17:05:15;101922.16;;;-5.75;100.00
49627;BME280;35527;54.616;39.786;2023-02-08T17:08:20;101946.81;;;-5.56;100.00
49627;BME280;35527;54.616;39.786;2023-02-08T17:11:24;101942.75;;;-5.54;100.00
49627;BME280;35527;54.616;39.786;2023-02-08T17:14:29;101932.47;;;-5.57;100.00
49627;BME280;35527;54.616;39.786;2023-02-08T17:17:31;101941.75;;;-5.56;100.00
49627;BME280;35527;54.616;39.786;2023-02-08T17:20:38;101940.22;;;-5.54;100.00
49627;BME280;35527;54.616;39.786;2023-02-08T17:23:42;101921.41;;;-5.59;100.00
49627;BME280;35527;54.616;39.786;2023-02-08T17:26:46;101887.53;;;-5.77;100.00
49627;BME280;35527;54.616;39.786;2023-02-08T17:29:49;101913.16;;;-5.56;100.00
49627;BME280;35527;54.616;39.786;2023-02-08T17:32:56;101909.75;;;-5.57;100.00
49627;BME280;35527;54.616;39.786;2023-02-08T17:35:59;101896.59;;;-5.66;100.00
49627;BME280;35527;54.616;39.786;2023-02-08T17:39:04;101911.00;;;-5.50;100.00
49627;BME280;35527;54.616;39.786;2023-02-08T17:42:07;101875.53;;;-5.67;100.00
49627;BME280;35527;54.616;39.786;2023-02-08T17:45:18;101889.78;;;-5.54;100.00
49627;BME280;35527;54.616;39.786;2023-02-08T17:48:20;101887.13;;;-5.55;100.00
49627;BME280;35527;54.616;39.786;2023-02-08T17:51:24;101878.53;;;-5.59;100.00
49627;BME280;35527;54.616;39.786;2023-02-08T17:54:26;101872.72;;;-5.58;100.00
49627;BME280;35527;54.616;39.786;2023-02-08T17:57:34;101853.13;;;-5.62;100.00
49627;BME280;35527;54.616;39.786;2023-02-08T18:00:37;101907.63;;;-5.36;100.00
49627;BME280;35527;54.616;39.786;2023-02-08T18:03:43;101893.13;;;-5.40;100.00
49627;BME280;35527;54.616;39.786;2023-02-08T18:06:48;101900.06;;;-5.36;100.00
49627;BME280;35527;54.616;39.786;2023-02-08T18:09:52;101895.81;;;-5.37;100.00
49627;BME280;35527;54.616;39.786;2023-02-08T18:12:55;101908.59;;;-5.34;100.00
49627;BME280;35527;54.616;39.786;2023-02-08T18:16:25;101886.59;;;-5.36;100.00
49627;BME280;35527;54.616;39.786;2023-02-08T18:19:29;101901.00;;;-5.21;100.00
49627;BME280;35527;54.616;39.786;2023-02-08T18:22:34;101891.84;;;-5.18;100.00
49627;BME280;35527;54.616;39.786;2023-02-08T18:25:41;101862.03;;;-5.39;100.00
49627;BME280;35527;54.616;39.786;2023-02-08T18:28:46;101897.66;;;-5.19;100.00